createdAt,value
2022-08-01T00:00:12.803Z,100066.06
2022-08-01T00:02:39.444Z,100068.59
2022-08-01T00:05:08.618Z,100068.16
2022-08-01T00:07:34.930Z,100057.34
2022-08-01T00:10:01.267Z,100054.38
2022-08-01T00:12:27.559Z,100056.69
2022-08-01T00:14:53.869Z,100049.53
2022-08-01T00:17:20.179Z,100046.16
2022-08-01T00:19:46.491Z,100035.19
2022-08-01T00:22:12.812Z,100030.56
2022-08-01T00:24:39.130Z,100037.28
2022-08-01T00:27:05.429Z,100029.47
2022-08-01T00:30:10.311Z,100031.69
2022-08-01T00:32:18.012Z,100032.75
2022-08-01T00:34:44.344Z,100032.53
2022-08-01T00:37:10.646Z,100035.50
2022-08-01T00:39:42.265Z,100037.13
2022-08-01T00:42:08.678Z,100034.50
2022-08-01T00:44:35.041Z,100038.56
2022-08-01T00:47:01.347Z,100040.72
2022-08-01T00:49:27.722Z,100036.69
2022-08-01T00:51:54.055Z,100042.56
2022-08-01T00:54:20.361Z,100034.75
2022-08-01T00:56:46.670Z,100037.22
2022-08-01T00:59:13.369Z,100045.16
2022-08-01T01:01:40.428Z,100039.38
2022-08-01T01:04:12.920Z,100034.88
2022-08-01T01:06:39.260Z,100036.56
2022-08-01T01:09:05.560Z,100030.44
2022-08-01T01:11:31.885Z,100023.41
2022-08-01T01:13:58.185Z,100025.63
2022-08-01T01:16:24.521Z,100036.72
2022-08-01T01:18:50.814Z,100036.72
2022-08-01T01:21:17.409Z,100032.09
2022-08-01T01:23:43.712Z,100036.72
2022-08-01T01:26:10.011Z,100032.47
2022-08-01T01:28:36.323Z,100032.19
2022-08-01T01:31:02.622Z,100032.94
2022-08-01T01:33:35.052Z,100028.22
2022-08-01T01:36:11.894Z,100023.97
2022-08-01T01:38:38.206Z,100027.16
2022-08-01T01:41:04.552Z,100019.16
2022-08-01T01:43:33.529Z,100027.38
2022-08-01T01:46:00.131Z,100025.16
2022-08-01T01:48:26.440Z,100019.97
2022-08-01T01:50:52.741Z,100017.50
2022-08-01T01:53:19.041Z,100018.72
2022-08-01T01:55:49.997Z,100012.31
2022-08-01T01:58:16.465Z,100017.41
2022-08-01T02:00:42.746Z,100011.94
2022-08-01T02:03:12.294Z,100012.03
2022-08-01T02:05:38.778Z,100008.28
2022-08-01T02:08:05.080Z,100010.19
2022-08-01T02:10:31.388Z,100015.81
2022-08-01T02:12:57.687Z,100021.56
2022-08-01T02:15:23.976Z,100021.81
2022-08-01T02:17:50.264Z,100021.47
2022-08-01T02:20:17.145Z,100019.19
2022-08-01T02:22:43.389Z,100014.56
2022-08-01T02:25:09.688Z,100020.69
2022-08-01T02:27:36.012Z,100019.66
2022-08-01T02:30:02.325Z,100022.56
2022-08-01T02:32:28.610Z,100023.81
2022-08-01T02:34:54.897Z,100023.22
2022-08-01T02:37:21.931Z,100029.34
2022-08-01T02:39:48.236Z,100029.53
2022-08-01T02:42:14.536Z,100036.84
2022-08-01T02:44:40.832Z,100040.59
2022-08-01T02:47:07.259Z,100035.78
2022-08-01T02:49:34.053Z,100039.63
2022-08-01T02:52:00.388Z,100041.34
2022-08-01T02:54:26.693Z,100040.28
2022-08-01T02:56:52.979Z,100036.72
2022-08-01T02:59:22.247Z,100039.81
2022-08-01T03:01:48.882Z,100046.41
2022-08-01T03:04:15.550Z,100038.41
2022-08-01T03:06:44.379Z,100037.38
2022-08-01T03:09:11.606Z,100037.47
2022-08-01T03:11:37.920Z,100034.00
2022-08-01T03:14:04.250Z,100043.50
2022-08-01T03:16:30.545Z,100052.94
2022-08-01T03:18:57.033Z,100049.25
2022-08-01T03:21:23.386Z,100044.06
2022-08-01T03:23:54.715Z,100045.84
2022-08-01T03:26:21.437Z,100046.72
2022-08-01T03:28:47.788Z,100052.81
2022-08-01T03:31:14.095Z,100051.03
2022-08-01T03:33:40.393Z,100048.56
2022-08-01T03:36:06.703Z,100037.66
2022-08-01T03:38:33.007Z,100042.38
2022-08-01T03:40:59.292Z,100040.59
2022-08-01T03:43:25.605Z,100039.72
2022-08-01T03:45:51.899Z,100048.41
2022-08-01T03:48:18.210Z,100048.00
2022-08-01T03:50:44.506Z,100051.41
2022-08-01T03:53:10.990Z,100051.41
2022-08-01T03:55:38.260Z,100041.53
2022-08-01T03:58:08.294Z,100043.84
2022-08-01T04:00:36.082Z,100051.03
2022-08-01T04:03:02.363Z,100052.06
2022-08-01T04:05:28.655Z,100048.31
2022-08-01T04:07:57.810Z,100050.16
2022-08-01T04:10:24.123Z,100050.75
2022-08-01T04:12:50.416Z,100055.53
2022-08-01T04:15:16.747Z,100064.31
2022-08-01T04:17:43.032Z,100055.28
2022-08-01T04:20:09.356Z,100059.16
2022-08-01T04:22:37.315Z,100064.78
2022-08-01T04:25:04.136Z,100064.13
2022-08-01T04:27:50.712Z,100071.31
2022-08-01T04:30:17.947Z,100068.84
2022-08-01T04:32:46.659Z,100079.22
2022-08-01T04:35:57.709Z,100081.47
2022-08-01T04:37:59.373Z,100073.13
2022-08-01T04:40:27.177Z,100072.88
2022-08-01T04:42:53.413Z,100072.97
2022-08-01T04:45:19.716Z,100082.84
2022-08-01T04:47:46.110Z,100075.50
2022-08-01T04:50:12.429Z,100088.63
2022-08-01T04:52:38.922Z,100083.22
2022-08-01T04:55:10.017Z,100084.56
2022-08-01T04:57:36.320Z,100087.38
2022-08-01T05:00:03.484Z,100091.16
2022-08-01T05:02:30.080Z,100085.06
2022-08-01T05:04:56.388Z,100088.91
2022-08-01T05:07:22.678Z,100094.09
2022-08-01T05:09:48.981Z,100096.91
2022-08-01T05:12:15.284Z,100091.16
2022-08-01T05:14:41.621Z,100093.16
2022-08-01T05:17:07.902Z,100098.13
2022-08-01T05:19:34.217Z,100107.75
2022-08-01T05:22:01.563Z,100102.41
2022-08-01T05:24:29.306Z,100109.38
2022-08-01T05:26:57.193Z,100101.25
2022-08-01T05:29:23.500Z,100108.22
2022-08-01T05:31:50.005Z,100104.16
2022-08-01T05:34:16.384Z,100105.31
2022-08-01T05:36:42.680Z,100107.38
2022-08-01T05:39:09.000Z,100106.34
2022-08-01T05:41:35.391Z,100110.50
2022-08-01T05:44:01.692Z,100110.97
2022-08-01T05:46:27.993Z,100102.63
2022-08-01T05:48:54.352Z,100102.19
2022-08-01T05:51:20.678Z,100096.00
2022-08-01T05:53:47.064Z,100110.00
2022-08-01T05:56:13.364Z,100116.03
2022-08-01T05:58:39.673Z,100110.69
2022-08-01T06:01:06.028Z,100110.78
2022-08-01T06:03:34.177Z,100110.03
2022-08-01T06:06:00.462Z,100116.16
2022-08-01T06:08:26.746Z,100122.16
2022-08-01T06:10:53.385Z,100122.78
2022-08-01T06:13:20.499Z,100123.00
2022-08-01T06:15:46.808Z,100119.22
2022-08-01T06:18:13.104Z,100126.59
2022-08-01T06:20:39.386Z,100128.50
2022-08-01T06:23:12.177Z,100127.91
2022-08-01T06:25:51.957Z,100138.50
2022-08-01T06:28:18.620Z,100140.16
2022-08-01T06:30:44.907Z,100126.69
2022-08-01T06:33:11.239Z,100134.69
2022-08-01T06:35:37.531Z,100137.72
2022-08-01T06:38:03.974Z,100143.09
2022-08-01T06:40:30.284Z,100142.50
2022-08-01T06:42:56.580Z,100150.56
2022-08-01T06:45:27.823Z,100151.09
2022-08-01T06:47:54.110Z,100150.25
2022-08-01T06:50:20.414Z,100151.28
2022-08-01T06:52:46.793Z,100151.47
2022-08-01T06:55:13.091Z,100155.16
2022-08-01T06:57:39.417Z,100161.56
2022-08-01T07:00:07.101Z,100162.00
2022-08-01T07:02:33.403Z,100160.13
2022-08-01T07:05:01.313Z,100160.41
2022-08-01T07:07:30.160Z,100168.72
2022-08-01T07:09:56.484Z,100174.34
2022-08-01T07:12:22.794Z,100185.94
2022-08-01T07:14:49.120Z,100186.97
2022-08-01T07:17:15.456Z,100178.25
2022-08-01T07:19:41.826Z,100185.84
2022-08-01T07:22:09.172Z,100187.88
2022-08-01T07:24:37.342Z,100190.91
2022-08-01T07:27:23.899Z,100176.59
2022-08-01T07:29:49.912Z,100189.56
2022-08-01T07:32:16.209Z,100183.28
2022-08-01T07:34:44.613Z,100187.78
2022-08-01T07:37:10.909Z,100184.97
2022-08-01T07:39:37.204Z,100185.97
2022-08-01T07:42:07.308Z,100185.59
2022-08-01T07:44:34.237Z,100188.38
2022-08-01T07:47:00.519Z,100187.66
2022-08-01T07:49:26.875Z,100190.50
2022-08-01T07:52:03.264Z,100195.69
2022-08-01T07:54:39.618Z,100193.03
2022-08-01T07:57:05.919Z,100180.53
2022-08-01T07:59:32.237Z,100178.53
2022-08-01T08:01:58.702Z,100180.28
2022-08-01T08:04:25.391Z,100179.41
2022-08-01T08:06:51.740Z,100186.63
2022-08-01T08:09:18.044Z,100183.03
2022-08-01T08:11:47.209Z,100180.22
2022-08-01T08:14:14.265Z,100172.69
2022-08-01T08:16:40.555Z,100179.97
2022-08-01T08:19:06.857Z,100193.69
2022-08-01T08:21:33.168Z,100182.22
2022-08-01T08:24:18.392Z,100182.66
2022-08-01T08:26:44.687Z,100186.34
2022-08-01T08:29:11.010Z,100182.78
2022-08-01T08:31:52.268Z,100176.19
2022-08-01T08:34:19.104Z,100175.25
2022-08-01T08:36:47.887Z,100181.91
2022-08-01T08:39:14.540Z,100172.59
2022-08-01T08:41:40.830Z,100179.66
2022-08-01T08:44:10.375Z,100182.56
2022-08-01T08:46:37.616Z,100182.66
2022-08-01T08:49:04.355Z,100186.66
2022-08-01T08:51:32.947Z,100182.81
2022-08-01T08:53:59.254Z,100183.28
2022-08-01T08:56:25.547Z,100177.19
2022-08-01T08:58:54.732Z,100177.06
2022-08-01T09:01:22.795Z,100178.00
2022-08-01T09:03:49.412Z,100183.81
2022-08-01T09:06:15.711Z,100181.38
2022-08-01T09:08:42.021Z,100178.03
2022-08-01T09:11:08.312Z,100180.22
2022-08-01T09:13:34.617Z,100185.25
2022-08-01T09:16:00.929Z,100187.16
2022-08-01T09:18:28.693Z,100180.50
2022-08-01T09:20:54.932Z,100182.59
2022-08-01T09:23:21.228Z,100184.78
2022-08-01T09:25:47.885Z,100186.28
2022-08-01T09:28:14.290Z,100184.06
2022-08-01T09:30:42.292Z,100174.97
2022-08-01T09:33:17.830Z,100180.63
2022-08-01T09:35:48.088Z,100185.47
2022-08-01T09:38:15.412Z,100188.84
2022-08-01T09:40:41.726Z,100184.81
2022-08-01T09:43:08.061Z,100181.53
2022-08-01T09:45:41.029Z,100177.03
2022-08-01T09:48:10.575Z,100181.34
2022-08-01T09:50:37.122Z,100175.91
2022-08-01T09:53:04.362Z,100184.91
2022-08-01T09:55:30.668Z,100175.84
2022-08-01T09:57:57.106Z,100181.19
2022-08-01T10:00:44.348Z,100174.88
2022-08-01T10:03:10.388Z,100179.66
2022-08-01T10:05:37.458Z,100172.13
2022-08-01T10:08:07.973Z,100180.50
2022-08-01T10:10:34.590Z,100173.00
2022-08-01T10:13:03.880Z,100170.63
2022-08-01T10:15:36.703Z,100177.84
2022-08-01T10:18:03.942Z,100170.44
2022-08-01T10:20:32.425Z,100169.78
2022-08-01T10:22:58.854Z,100177.75
2022-08-01T10:25:42.097Z,100177.63
2022-08-01T10:28:10.258Z,100178.69
2022-08-01T10:30:36.716Z,100177.41
2022-08-01T10:33:03.019Z,100172.34
2022-08-01T10:35:46.841Z,100173.19
2022-08-01T10:38:14.174Z,100171.94
2022-08-01T10:40:40.559Z,100179.72
2022-08-01T10:43:06.940Z,100170.41
2022-08-01T10:45:34.256Z,100176.56
2022-08-01T10:48:00.600Z,100183.34
2022-08-01T10:50:28.338Z,100179.09
2022-08-01T10:52:54.640Z,100190.91
2022-08-01T10:55:20.954Z,100191.59
2022-08-01T10:57:52.516Z,100178.03
2022-08-01T11:00:19.302Z,100191.34
2022-08-01T11:02:49.405Z,100196.88
2022-08-01T11:05:15.695Z,100191.56
2022-08-01T11:07:45.510Z,100194.34
2022-08-01T11:10:15.109Z,100189.88
2022-08-01T11:12:41.502Z,100184.56
2022-08-01T11:15:10.470Z,100178.88
2022-08-01T11:17:37.224Z,100191.53
2022-08-01T11:20:05.342Z,100176.13
2022-08-01T11:22:31.649Z,100182.13
2022-08-01T11:24:57.933Z,100185.13
2022-08-01T11:27:24.423Z,100176.72
2022-08-01T11:29:50.726Z,100166.28
2022-08-01T11:32:17.014Z,100170.13
2022-08-01T11:34:43.316Z,100172.59
2022-08-01T11:37:10.091Z,100171.88
2022-08-01T11:39:38.799Z,100164.91
2022-08-01T11:42:05.378Z,100161.97
2022-08-01T11:44:34.376Z,100159.41
2022-08-01T11:47:00.741Z,100162.38
2022-08-01T11:49:29.366Z,100163.44
2022-08-01T11:51:55.901Z,100164.31
2022-08-01T11:54:35.442Z,100195.13
2022-08-01T11:57:02.335Z,100190.88
2022-08-01T11:59:33.987Z,100187.25
2022-08-01T12:02:04.844Z,100188.66
2022-08-01T12:04:31.195Z,100198.22
2022-08-01T12:06:57.547Z,100192.16
2022-08-01T12:09:25.309Z,100195.91
2022-08-01T12:11:51.544Z,100194.16
2022-08-01T12:14:17.840Z,100197.97
2022-08-01T12:16:44.122Z,100193.16
2022-08-01T12:19:11.802Z,100188.16
2022-08-01T12:21:38.198Z,100187.13
2022-08-01T12:24:04.499Z,100187.97
2022-08-01T12:26:32.245Z,100187.03
2022-08-01T12:28:58.760Z,100186.13
2022-08-01T12:31:25.045Z,100198.13
2022-08-01T12:33:51.344Z,100190.09
2022-08-01T12:36:17.658Z,100194.09
2022-08-01T12:38:43.950Z,100198.88
2022-08-01T12:41:10.230Z,100194.53
2022-08-01T12:43:36.541Z,100191.53
2022-08-01T12:46:02.841Z,100188.22
2022-08-01T12:48:29.201Z,100185.41
2022-08-01T12:50:57.633Z,100174.84
2022-08-01T12:53:23.931Z,100185.63
2022-08-01T12:55:58.525Z,100181.63
2022-08-01T12:58:26.044Z,100181.84
2022-08-01T13:00:52.378Z,100169.16
2022-08-01T13:03:18.704Z,100190.53
2022-08-01T13:05:45.019Z,100185.88
2022-08-01T13:08:11.334Z,100182.84
2022-08-01T13:10:37.681Z,100184.66
2022-08-01T13:13:04.214Z,100181.69
2022-08-01T13:15:32.574Z,100189.56
2022-08-01T13:17:59.177Z,100175.09
2022-08-01T13:20:25.498Z,100175.03
2022-08-01T13:22:52.697Z,100172.81
2022-08-01T13:25:22.653Z,100172.06
2022-08-01T13:27:53.860Z,100165.88
2022-08-01T13:30:20.432Z,100176.38
2022-08-01T13:32:46.758Z,100169.03
2022-08-01T13:35:16.092Z,100180.41
2022-08-01T13:37:42.799Z,100182.16
2022-08-01T13:40:09.054Z,100181.91
2022-08-01T13:42:35.417Z,100173.00
2022-08-01T13:45:02.921Z,100189.59
2022-08-01T13:47:32.124Z,100185.13
2022-08-01T13:50:01.603Z,100180.41
2022-08-01T13:52:28.180Z,100175.88
2022-08-01T13:54:54.478Z,100180.31
2022-08-01T13:57:21.658Z,100185.13
2022-08-01T13:59:47.982Z,100181.09
2022-08-01T14:02:14.281Z,100197.13
2022-08-01T14:04:40.565Z,100185.31
2022-08-01T14:07:09.645Z,100182.66
2022-08-01T14:09:38.178Z,100185.25
2022-08-01T14:12:24.411Z,100189.88
2022-08-01T14:14:50.798Z,100197.69
2022-08-01T14:17:17.117Z,100182.34
2022-08-01T14:19:46.213Z,100190.34
2022-08-01T14:22:12.869Z,100203.00
2022-08-01T14:24:39.240Z,100196.81
2022-08-01T14:27:07.362Z,100195.50
2022-08-01T14:30:02.209Z,100192.63
2022-08-01T14:32:19.988Z,100198.25
2022-08-01T14:34:50.758Z,100201.59
2022-08-01T14:37:17.056Z,100194.84
2022-08-01T14:39:47.028Z,100210.44
2022-08-01T14:42:20.716Z,100207.28
2022-08-01T14:44:49.827Z,100210.97
2022-08-01T14:47:21.726Z,100215.38
2022-08-01T14:49:48.582Z,100214.31
2022-08-01T14:52:14.919Z,100205.16
2022-08-01T14:54:41.210Z,100208.88
2022-08-01T14:57:07.532Z,100221.75
2022-08-01T14:59:33.820Z,100215.75
2022-08-01T15:02:00.116Z,100213.91
2022-08-01T15:04:26.408Z,100217.34
2022-08-01T15:06:52.715Z,100213.50
2022-08-01T15:09:19.021Z,100213.72
2022-08-01T15:11:45.339Z,100220.66
2022-08-01T15:14:30.703Z,100220.41
2022-08-01T15:16:57.270Z,100222.47
2022-08-01T15:19:23.579Z,100215.84
2022-08-01T15:21:49.909Z,100210.88
2022-08-01T15:24:16.214Z,100233.31
2022-08-01T15:26:43.709Z,100231.69
2022-08-01T15:29:10.018Z,100223.91
2022-08-01T15:31:36.352Z,100222.63
2022-08-01T15:34:05.500Z,100223.25
2022-08-01T15:36:32.016Z,100218.94
2022-08-01T15:38:58.419Z,100224.69
2022-08-01T15:41:24.736Z,100221.66
2022-08-01T15:43:55.834Z,100236.09
2022-08-01T15:46:22.453Z,100233.13
2022-08-01T15:48:48.836Z,100230.09
2022-08-01T15:51:15.178Z,100228.09
2022-08-01T15:53:41.847Z,100226.81
2022-08-01T15:56:08.145Z,100238.28
2022-08-01T15:58:34.650Z,100229.41
2022-08-01T16:01:00.948Z,100233.59
2022-08-01T16:03:27.727Z,100233.44
2022-08-01T16:05:53.964Z,100241.69
2022-08-01T16:08:20.277Z,100238.31
2022-08-01T16:10:46.609Z,100241.50
2022-08-01T16:13:12.948Z,100233.22
2022-08-01T16:15:39.463Z,100241.91
2022-08-01T16:18:05.852Z,100236.22
2022-08-01T16:20:32.138Z,100233.19
2022-08-01T16:22:58.529Z,100234.25
2022-08-01T16:25:24.876Z,100234.88
2022-08-01T16:27:51.236Z,100225.38
2022-08-01T16:30:17.525Z,100220.22
2022-08-01T16:32:47.080Z,100223.03
2022-08-01T16:35:15.083Z,100219.56
2022-08-01T16:37:41.382Z,100232.19
2022-08-01T16:40:07.709Z,100234.06
2022-08-01T16:42:34.035Z,100211.59
2022-08-01T16:45:01.918Z,100230.59
2022-08-01T16:47:35.255Z,100229.38
2022-08-01T16:50:01.600Z,100224.91
2022-08-01T16:52:28.711Z,100220.06
2022-08-01T16:54:57.327Z,100224.72
2022-08-01T16:57:23.640Z,100226.22
2022-08-01T16:59:49.940Z,100232.41
2022-08-01T17:02:16.924Z,100228.19
2022-08-01T17:04:43.236Z,100232.41
2022-08-01T17:07:10.045Z,100235.56
2022-08-01T17:09:39.904Z,100233.03
2022-08-01T17:12:10.578Z,100235.72
2022-08-01T17:14:39.718Z,100236.00
2022-08-01T17:17:06.636Z,100238.94
2022-08-01T17:19:33.420Z,100243.75
2022-08-01T17:21:59.768Z,100248.28
2022-08-01T17:24:26.060Z,100244.75
2022-08-01T17:26:52.383Z,100248.81
2022-08-01T17:29:18.677Z,100250.94
2022-08-01T17:31:45.000Z,100258.41
2022-08-01T17:34:11.312Z,100257.31
2022-08-01T17:36:37.619Z,100255.84
2022-08-01T17:39:04.922Z,100252.25
2022-08-01T17:41:31.460Z,100262.59
2022-08-01T17:43:57.821Z,100262.78
2022-08-01T17:46:24.156Z,100255.22
2022-08-01T17:48:50.545Z,100261.78
2022-08-01T17:51:22.178Z,100259.28
2022-08-01T17:53:55.608Z,100263.38
2022-08-01T17:56:23.886Z,100264.75
2022-08-01T17:58:52.243Z,100263.69
2022-08-01T18:01:18.845Z,100274.66
2022-08-01T18:03:45.291Z,100273.22
2022-08-01T18:06:13.459Z,100270.00
2022-08-01T18:08:41.731Z,100269.94
2022-08-01T18:11:08.064Z,100261.28
2022-08-01T18:13:35.714Z,100270.34
2022-08-01T18:16:02.533Z,100270.63
2022-08-01T18:18:33.338Z,100273.84
2022-08-01T18:21:00.381Z,100275.44
2022-08-01T18:23:26.670Z,100286.81
2022-08-01T18:25:53.711Z,100277.88
2022-08-01T18:28:32.280Z,100286.50
2022-08-01T18:31:01.899Z,100285.50
2022-08-01T18:33:28.207Z,100287.63
2022-08-01T18:35:56.055Z,100295.69
2022-08-01T18:38:28.013Z,100290.38
2022-08-01T18:40:54.340Z,100294.56
2022-08-01T18:43:20.639Z,100293.06
2022-08-01T18:45:46.919Z,100293.94
2022-08-01T18:48:13.260Z,100299.31
2022-08-01T18:50:39.710Z,100306.88
2022-08-01T18:53:06.003Z,100308.94
2022-08-01T18:55:32.321Z,100318.88
2022-08-01T18:57:58.643Z,100321.06
2022-08-01T19:00:24.928Z,100319.25
2022-08-01T19:02:51.240Z,100319.56
2022-08-01T19:05:17.536Z,100324.09
2022-08-01T19:08:06.839Z,100324.16
2022-08-01T19:10:30.165Z,100329.06
2022-08-01T19:12:56.481Z,100326.59
2022-08-01T19:15:22.758Z,100338.56
2022-08-01T19:17:49.064Z,100344.78
2022-08-01T19:20:15.359Z,100341.91
2022-08-01T19:22:41.660Z,100345.84
2022-08-01T19:25:07.961Z,100347.09
2022-08-01T19:27:34.267Z,100359.22
2022-08-01T19:30:00.550Z,100363.88
2022-08-01T19:32:26.857Z,100366.19
2022-08-01T19:34:54.566Z,100368.53
2022-08-01T19:37:25.373Z,100373.59
2022-08-01T19:39:53.412Z,100369.00
2022-08-01T19:42:19.753Z,100376.63
2022-08-01T19:44:46.069Z,100389.88
2022-08-01T19:47:13.954Z,100391.50
2022-08-01T19:49:40.283Z,100391.28
2022-08-01T19:52:06.629Z,100392.34
2022-08-01T19:54:33.562Z,100396.50
2022-08-01T19:56:59.779Z,100399.25
2022-08-01T19:59:26.375Z,100401.91
2022-08-01T20:01:54.264Z,100400.13
2022-08-01T20:04:20.560Z,100409.59
2022-08-01T20:06:46.847Z,100405.53
2022-08-01T20:09:13.318Z,100407.16
2022-08-01T20:11:39.622Z,100411.81
2022-08-01T20:14:05.921Z,100414.03
2022-08-01T20:16:33.013Z,100417.97
2022-08-01T20:18:59.319Z,100420.06
2022-08-01T20:21:25.620Z,100419.97
2022-08-01T20:23:51.947Z,100437.63
2022-08-01T20:26:18.292Z,100432.88
2022-08-01T20:28:44.593Z,100427.34
2022-08-01T20:31:10.952Z,100433.03
2022-08-01T20:33:37.344Z,100432.09
2022-08-01T20:36:03.643Z,100438.16
2022-08-01T20:38:32.547Z,100439.06
2022-08-01T20:40:59.065Z,100437.38
2022-08-01T20:43:27.359Z,100434.00
2022-08-01T20:45:53.705Z,100440.97
2022-08-01T20:48:20.320Z,100436.16
2022-08-01T20:51:05.195Z,100446.59
2022-08-01T20:53:31.551Z,100442.84
2022-08-01T20:55:57.839Z,100452.13
2022-08-01T20:58:24.143Z,100447.22
2022-08-01T21:00:50.522Z,100453.47
2022-08-01T21:03:16.886Z,100452.72
2022-08-01T21:05:55.791Z,100455.09
2022-08-01T21:08:25.240Z,100455.94
2022-08-01T21:10:51.533Z,100451.88
2022-08-01T21:13:21.154Z,100458.19
2022-08-01T21:16:22.621Z,100456.84
2022-08-01T21:18:35.501Z,100447.78
2022-08-01T21:21:02.230Z,100455.38
2022-08-01T21:23:28.529Z,100457.34
2022-08-01T21:25:54.829Z,100458.81
2022-08-01T21:28:21.192Z,100458.00
2022-08-01T21:30:53.871Z,100455.25
2022-08-01T21:33:22.126Z,100458.28
2022-08-01T21:35:49.935Z,100459.97
2022-08-01T21:38:16.156Z,100466.94
2022-08-01T21:40:42.471Z,100466.91
2022-08-01T21:43:08.788Z,100463.91
2022-08-01T21:45:35.082Z,100463.19
2022-08-01T21:48:01.368Z,100465.91
2022-08-01T21:50:27.670Z,100468.69
2022-08-01T21:52:53.982Z,100476.56
2022-08-01T21:55:20.270Z,100471.31
2022-08-01T21:57:47.440Z,100471.13
2022-08-01T22:00:21.062Z,100473.53
2022-08-01T22:02:54.015Z,100482.06
2022-08-01T22:05:20.330Z,100471.31
2022-08-01T22:07:48.762Z,100485.81
2022-08-01T22:10:15.077Z,100490.59
2022-08-01T22:12:41.378Z,100493.53
2022-08-01T22:15:07.684Z,100490.28
2022-08-01T22:17:33.971Z,100487.59
2022-08-01T22:20:00.285Z,100490.50
2022-08-01T22:22:44.286Z,100502.44
2022-08-01T22:25:12.892Z,100498.69
2022-08-01T22:28:06.399Z,100499.91
2022-08-01T22:30:28.465Z,100498.53
2022-08-01T22:33:15.166Z,100506.19
2022-08-01T22:35:41.916Z,100500.59
2022-08-01T22:38:09.844Z,100507.41
2022-08-01T22:40:36.340Z,100504.00
2022-08-01T22:43:02.656Z,100508.28
2022-08-01T22:45:28.942Z,100509.13
2022-08-01T22:47:55.260Z,100515.28
2022-08-01T22:50:36.610Z,100511.19
2022-08-01T22:53:03.177Z,100512.91
2022-08-01T22:55:59.223Z,100506.09
2022-08-01T22:58:18.850Z,100505.91
2022-08-01T23:00:45.144Z,100515.09
2022-08-01T23:03:11.468Z,100520.41
2022-08-01T23:05:37.763Z,100514.09
2022-08-01T23:08:04.058Z,100528.41
2022-08-01T23:10:30.369Z,100524.66
2022-08-01T23:12:56.698Z,100521.78
2022-08-01T23:15:23.009Z,100518.88
2022-08-01T23:17:49.425Z,100514.25
2022-08-01T23:20:15.784Z,100519.88
2022-08-01T23:22:42.077Z,100515.97
2022-08-01T23:25:08.374Z,100523.47
2022-08-01T23:28:03.637Z,100518.50
2022-08-01T23:30:20.943Z,100524.78
2022-08-01T23:32:47.299Z,100514.94
2022-08-01T23:35:13.601Z,100525.16
2022-08-01T23:37:39.897Z,100516.63
2022-08-01T23:40:06.290Z,100523.03
2022-08-01T23:42:32.595Z,100518.97
2022-08-01T23:44:58.892Z,100521.53
2022-08-01T23:47:25.218Z,100525.09
2022-08-01T23:49:53.705Z,100519.66
2022-08-01T23:52:20.573Z,100518.56
2022-08-01T23:54:47.861Z,100526.09
2022-08-01T23:57:16.164Z,100520.94
2022-08-01T23:59:53.000Z,100514.84
